Currently 52°F in Simi Valley, California, USA
52°F
55°F / 51°F
1 mph NE
0.00"
Monday, April 12, 2021 5:00 AM PDT

Simi Valley, California Weather Summary
Last 36 Hours

Temperature Winds Hourly Humidity Dewpoint
Time Report Norm Report Norm Max Gusts Precip. Rpt. Norm Rpt. Norm Pressure
1Mon 05:00 AM  51.8°F  52°F  1 mph NE  3 mph  6 mph  0.00"  82%  69%  46°F  42°F  29.73"
Mon 04:00 AM  50.9°F  52°F  calm  3 mph  5 mph  0.00"  81%  69%  45°F  42°F  29.73"
3Mon 03:55 AM  50.9°F  52°F  3 mph NE  2 mph  5 mph  ----  81%  69%  45°F  42°F  29.73"
Mon 03:00 AM  51.3°F  53°F  calm  3 mph  5 mph  0.00"  79%  69%  45°F  42°F  29.72"
Mon 02:00 AM  52.0°F  53°F  1 mph NE  3 mph  5 mph  0.00"  76%  68%  44°F  43°F  29.73"
Mon 01:00 AM  53.4°F  54°F  1 mph N  3 mph  5 mph  0.00"  74%  67%  45°F  43°F  29.74"
2Mon 12:00 AM  55.1°F  55°F  3 mph E  3 mph  5 mph  0.00"  70%  66%  45°F  43°F  29.72"
Sun 11:00 PM  56.3°F  56°F  calm  2 mph  6 mph  0.00"  67%  65%  45°F  44°F  29.71"
Sun 10:00 PM  58.3°F  57°F  2 mph NE  2 mph  5 mph  0.00"  66%  64%  46°F  44°F  29.71"
Sun 09:00 PM  59.9°F  59°F  1 mph W  3 mph  8 mph  0.00"  70%  63%  50°F  45°F  29.70"
Sun 08:00 PM  62.8°F  61°F  4 mph NW  3 mph  9 mph  0.00"  62%  59%  49°F  46°F  29.68"
Sun 07:00 PM  66.9°F  65°F  4 mph W  4 mph  10 mph  0.00"  53%  52%  48°F  46°F  29.66"
Sun 06:00 PM  70.4°F  67°F  7 mph W  6 mph  16 mph  0.00"  45%  48%  47°F  46°F  29.65"
Sun 05:00 PM  74.4°F  69°F  8 mph NW  7 mph  15 mph  0.00"  41%  46%  48°F  47°F  29.64"
Sun 04:00 PM  73.4°F  70°F  9 mph NW  7 mph  19 mph  0.00"  46%  44%  50°F  47°F  29.65"
Sun 03:00 PM  76.3°F  71°F  9 mph NW  7 mph  15 mph  0.00"  39%  43%  49°F  47°F  29.66"
Sun 02:00 PM  74.9°F  72°F  8 mph NW  6 mph  11 mph  0.00"  41%  41%  49°F  46°F  29.69"
Sun 01:00 PM  70.2°F  71°F  5 mph NW  6 mph  9 mph  0.00"  45%  41%  47°F  45°F  29.72"
Sun 12:00 PM  65.3°F  69°F  5 mph NW  6 mph  8 mph  0.00"  53%  43%  47°F  45°F  29.75"
Sun 11:00 AM  62.8°F  67°F  4 mph NW  5 mph  10 mph  0.00"  57%  47%  47°F  45°F  29.77"
Sun 10:00 AM  60.3°F  63°F  4 mph NW  5 mph  9 mph  0.00"  59%  54%  45°F  46°F  29.77"
Sun 09:00 AM  57.7°F  59°F  1 mph W  3 mph  4 mph  0.00"  63%  62%  45°F  46°F  29.75"
Sun 08:00 AM  51.2°F  54°F  calm  3 mph  3 mph  0.00"  69%  69%  41°F  44°F  29.74"
Sun 07:00 AM  48.2°F  51°F  calm  3 mph  6 mph  0.00"  68%  71%  38°F  42°F  29.75"
Sun 06:00 AM  48.2°F  52°F  calm  3 mph  5 mph  0.00"  65%  71%  37°F  42°F  29.75"
Sun 05:00 AM  48.3°F  52°F  calm  3 mph  5 mph  0.00"  62%  70%  35°F  42°F  29.75"
Sun 04:00 AM  48.8°F  53°F  calm  3 mph  4 mph  0.00"  56%  70%  33°F  43°F  29.76"
Sun 03:00 AM  49.9°F  53°F  calm  3 mph  5 mph  0.00"  53%  69%  32°F  43°F  29.76"
Sun 02:00 AM  51.2°F  54°F  calm  3 mph  4 mph  0.00"  50%  68%  32°F  43°F  29.76"
Sun 01:00 AM  53.3°F  54°F  calm  3 mph  4 mph  0.00"  50%  68%  35°F  43°F  29.77"
Sun 12:00 AM  56.7°F  55°F  calm  3 mph  none  0.00"  50%  67%  37°F  44°F  29.77"
Sat 11:00 PM  59.1°F  56°F  calm  3 mph  7 mph  0.00"  49%  66%  39°F  44°F  29.77"
Sat 10:00 PM  60.7°F  57°F  2 mph NE  3 mph  5 mph  0.00"  49%  64%  41°F  44°F  29.77"
Sat 09:00 PM  63.3°F  59°F  calm  3 mph  6 mph  0.00"  46%  63%  42°F  46°F  29.76"
Sat 08:00 PM  67.7°F  61°F  3 mph NE  3 mph  5 mph  0.00"  43%  59%  44°F  46°F  29.75"
Sat 07:00 PM  71.6°F  65°F  1 mph NW  4 mph  10 mph  0.00"  38%  53%  43°F  46°F  29.74"
Sat 06:00 PM  73.5°F  67°F  2 mph NW  6 mph  12 mph  0.00"  29%  49%  38°F  46°F  29.74"

  1. Current weather data. No green row appears if the current weather data is also the high or low for the current day.
  2. High temperature for the current day.
  3. Low temperature for the current day.

The Simi Valley, California weather pages are a service of WeatherCurrents.
Copyright ©2021  WeatherCurrents. All rights reserved. - Submit questions and comments - Privacy Policy

This page automatically refreshes every 10 minutes.